sensor_id;sensor_type;location;lat;lon;timestamp;P1;durP1;ratioP1;P2;durP2;ratioP2
68800;SDS011;55784;50.734;7.086;2024-01-07T00:00:46;23.17;;;7.07;;
68800;SDS011;55784;50.734;7.086;2024-01-07T00:03:11;21.58;;;6.90;;
68800;SDS011;55784;50.734;7.086;2024-01-07T00:05:36;20.57;;;7.07;;
68800;SDS011;55784;50.734;7.086;2024-01-07T00:08:02;20.42;;;7.13;;
68800;SDS011;55784;50.734;7.086;2024-01-07T00:10:27;20.97;;;6.70;;
68800;SDS011;55784;50.734;7.086;2024-01-07T00:12:52;20.23;;;7.10;;
68800;SDS011;55784;50.734;7.086;2024-01-07T00:15:18;19.40;;;6.60;;
68800;SDS011;55784;50.734;7.086;2024-01-07T00:17:43;21.43;;;7.00;;
68800;SDS011;55784;50.734;7.086;2024-01-07T00:20:08;25.77;;;8.90;;
68800;SDS011;55784;50.734;7.086;2024-01-07T00:22:33;28.27;;;9.07;;
68800;SDS011;55784;50.734;7.086;2024-01-07T00:24:59;27.87;;;8.90;;
68800;SDS011;55784;50.734;7.086;2024-01-07T00:27:24;25.93;;;9.20;;
68800;SDS011;55784;50.734;7.086;2024-01-07T00:29:49;29.27;;;10.23;;
68800;SDS011;55784;50.734;7.086;2024-01-07T00:32:14;27.20;;;9.73;;
68800;SDS011;55784;50.734;7.086;2024-01-07T00:34:39;33.57;;;9.63;;
68800;SDS011;55784;50.734;7.086;2024-01-07T00:37:05;33.30;;;10.47;;
68800;SDS011;55784;50.734;7.086;2024-01-07T00:39:30;32.63;;;9.73;;
68800;SDS011;55784;50.734;7.086;2024-01-07T00:41:55;32.00;;;9.90;;
68800;SDS011;55784;50.734;7.086;2024-01-07T00:44:20;34.73;;;9.93;;
68800;SDS011;55784;50.734;7.086;2024-01-07T00:46:45;35.43;;;10.90;;
68800;SDS011;55784;50.734;7.086;2024-01-07T00:49:11;33.90;;;10.50;;
68800;SDS011;55784;50.734;7.086;2024-01-07T00:51:36;34.13;;;10.40;;
68800;SDS011;55784;50.734;7.086;2024-01-07T00:54:01;37.50;;;11.00;;
68800;SDS011;55784;50.734;7.086;2024-01-07T00:56:26;36.03;;;10.90;;
68800;SDS011;55784;50.734;7.086;2024-01-07T00:58:52;34.27;;;10.30;;
68800;SDS011;55784;50.734;7.086;2024-01-07T01:01:17;31.87;;;9.93;;
68800;SDS011;55784;50.734;7.086;2024-01-07T01:03:42;36.93;;;11.27;;
68800;SDS011;55784;50.734;7.086;2024-01-07T01:06:07;35.33;;;10.73;;
68800;SDS011;55784;50.734;7.086;2024-01-07T01:08:33;33.80;;;10.77;;
68800;SDS011;55784;50.734;7.086;2024-01-07T01:10:58;33.87;;;10.60;;
68800;SDS011;55784;50.734;7.086;2024-01-07T01:13:23;33.87;;;10.57;;
68800;SDS011;55784;50.734;7.086;2024-01-07T01:15:48;32.53;;;9.57;;
68800;SDS011;55784;50.734;7.086;2024-01-07T01:18:13;32.40;;;10.40;;
68800;SDS011;55784;50.734;7.086;2024-01-07T01:20:38;38.57;;;11.20;;
68800;SDS011;55784;50.734;7.086;2024-01-07T01:23:04;33.33;;;10.60;;
68800;SDS011;55784;50.734;7.086;2024-01-07T01:25:29;31.30;;;10.13;;
68800;SDS011;55784;50.734;7.086;2024-01-07T01:27:54;35.08;;;10.90;;
68800;SDS011;55784;50.734;7.086;2024-01-07T01:30:20;35.13;;;10.50;;
68800;SDS011;55784;50.734;7.086;2024-01-07T01:32:45;35.43;;;10.17;;
68800;SDS011;55784;50.734;7.086;2024-01-07T01:35:10;36.83;;;11.03;;
68800;SDS011;55784;50.734;7.086;2024-01-07T01:37:35;31.50;;;9.77;;
68800;SDS011;55784;50.734;7.086;2024-01-07T01:40:00;34.63;;;10.67;;
68800;SDS011;55784;50.734;7.086;2024-01-07T01:42:26;36.70;;;10.70;;
68800;SDS011;55784;50.734;7.086;2024-01-07T01:44:51;35.90;;;11.15;;
68800;SDS011;55784;50.734;7.086;2024-01-07T01:47:17;28.97;;;9.23;;
68800;SDS011;55784;50.734;7.086;2024-01-07T01:49:42;31.63;;;9.93;;
68800;SDS011;55784;50.734;7.086;2024-01-07T01:52:08;33.10;;;10.73;;
68800;SDS011;55784;50.734;7.086;2024-01-07T01:54:33;33.50;;;10.18;;
68800;SDS011;55784;50.734;7.086;2024-01-07T01:56:59;33.45;;;10.48;;
68800;SDS011;55784;50.734;7.086;2024-01-07T01:59:24;31.20;;;9.27;;
68800;SDS011;55784;50.734;7.086;2024-01-07T02:01:50;34.53;;;9.73;;
68800;SDS011;55784;50.734;7.086;2024-01-07T02:04:15;30.20;;;9.40;;
68800;SDS011;55784;50.734;7.086;2024-01-07T02:06:40;32.33;;;9.97;;
68800;SDS011;55784;50.734;7.086;2024-01-07T02:09:06;30.13;;;9.50;;
68800;SDS011;55784;50.734;7.086;2024-01-07T02:11:31;31.40;;;9.50;;
68800;SDS011;55784;50.734;7.086;2024-01-07T02:13:56;28.40;;;8.90;;
68800;SDS011;55784;50.734;7.086;2024-01-07T02:16:21;29.43;;;9.10;;
68800;SDS011;55784;50.734;7.086;2024-01-07T02:18:46;25.60;;;8.43;;
68800;SDS011;55784;50.734;7.086;2024-01-07T02:21:15;29.20;;;9.07;;
68800;SDS011;55784;50.734;7.086;2024-01-07T02:23:40;24.67;;;8.40;;
68800;SDS011;55784;50.734;7.086;2024-01-07T02:26:06;22.77;;;7.63;;
68800;SDS011;55784;50.734;7.086;2024-01-07T02:28:31;24.07;;;7.97;;
68800;SDS011;55784;50.734;7.086;2024-01-07T02:30:56;21.92;;;7.43;;
68800;SDS011;55784;50.734;7.086;2024-01-07T02:33:22;25.43;;;8.23;;
68800;SDS011;55784;50.734;7.086;2024-01-07T02:35:47;23.10;;;7.70;;
68800;SDS011;55784;50.734;7.086;2024-01-07T02:38:12;24.80;;;8.00;;
68800;SDS011;55784;50.734;7.086;2024-01-07T02:40:37;21.58;;;7.53;;
68800;SDS011;55784;50.734;7.086;2024-01-07T02:43:02;19.43;;;6.97;;
68800;SDS011;55784;50.734;7.086;2024-01-07T02:45:28;17.25;;;6.03;;
68800;SDS011;55784;50.734;7.086;2024-01-07T02:47:53;19.93;;;6.67;;
68800;SDS011;55784;50.734;7.086;2024-01-07T02:50:18;20.53;;;6.50;;
68800;SDS011;55784;50.734;7.086;2024-01-07T02:52:43;17.10;;;5.50;;
68800;SDS011;55784;50.734;7.086;2024-01-07T02:55:08;22.92;;;6.97;;
68800;SDS011;55784;50.734;7.086;2024-01-07T02:57:34;23.20;;;6.70;;
68800;SDS011;55784;50.734;7.086;2024-01-07T02:59:59;21.27;;;5.90;;
68800;SDS011;55784;50.734;7.086;2024-01-07T03:02:25;14.50;;;4.83;;
68800;SDS011;55784;50.734;7.086;2024-01-07T03:04:50;14.17;;;4.90;;
68800;SDS011;55784;50.734;7.086;2024-01-07T03:07:15;15.00;;;4.87;;
68800;SDS011;55784;50.734;7.086;2024-01-07T03:09:40;15.23;;;5.00;;
68800;SDS011;55784;50.734;7.086;2024-01-07T03:12:06;13.90;;;4.30;;
68800;SDS011;55784;50.734;7.086;2024-01-07T03:14:31;13.20;;;4.20;;
68800;SDS011;55784;50.734;7.086;2024-01-07T03:16:56;15.82;;;4.90;;
68800;SDS011;55784;50.734;7.086;2024-01-07T03:19:21;15.10;;;4.60;;
68800;SDS011;55784;50.734;7.086;2024-01-07T03:21:47;14.63;;;4.70;;
68800;SDS011;55784;50.734;7.086;2024-01-07T03:24:13;17.45;;;5.15;;
68800;SDS011;55784;50.734;7.086;2024-01-07T03:26:38;13.50;;;4.77;;
68800;SDS011;55784;50.734;7.086;2024-01-07T03:29:03;15.67;;;5.07;;
68800;SDS011;55784;50.734;7.086;2024-01-07T03:31:28;16.50;;;5.23;;
68800;SDS011;55784;50.734;7.086;2024-01-07T03:33:54;14.67;;;4.70;;
68800;SDS011;55784;50.734;7.086;2024-01-07T03:36:19;16.00;;;4.93;;
68800;SDS011;55784;50.734;7.086;2024-01-07T03:38:44;17.50;;;5.67;;
68800;SDS011;55784;50.734;7.086;2024-01-07T03:41:15;15.57;;;5.33;;
68800;SDS011;55784;50.734;7.086;2024-01-07T03:43:40;17.10;;;4.85;;
68800;SDS011;55784;50.734;7.086;2024-01-07T03:46:05;16.33;;;5.07;;
68800;SDS011;55784;50.734;7.086;2024-01-07T03:48:30;18.73;;;6.83;;
68800;SDS011;55784;50.734;7.086;2024-01-07T03:50:55;17.17;;;6.63;;
68800;SDS011;55784;50.734;7.086;2024-01-07T03:53:21;18.03;;;6.07;;
68800;SDS011;55784;50.734;7.086;2024-01-07T03:55:46;19.43;;;6.87;;
68800;SDS011;55784;50.734;7.086;2024-01-07T03:58:11;18.10;;;6.07;;
68800;SDS011;55784;50.734;7.086;2024-01-07T04:00:36;19.57;;;6.20;;
68800;SDS011;55784;50.734;7.086;2024-01-07T04:03:01;19.40;;;5.85;;
68800;SDS011;55784;50.734;7.086;2024-01-07T04:05:27;21.27;;;7.20;;
68800;SDS011;55784;50.734;7.086;2024-01-07T04:07:54;21.50;;;7.47;;
68800;SDS011;55784;50.734;7.086;2024-01-07T04:10:19;21.80;;;7.53;;
68800;SDS011;55784;50.734;7.086;2024-01-07T04:12:44;21.77;;;7.40;;
68800;SDS011;55784;50.734;7.086;2024-01-07T04:15:10;22.03;;;7.43;;
68800;SDS011;55784;50.734;7.086;2024-01-07T04:17:36;21.48;;;7.90;;
68800;SDS011;55784;50.734;7.086;2024-01-07T04:20:01;22.13;;;7.47;;
68800;SDS011;55784;50.734;7.086;2024-01-07T04:22:26;20.92;;;7.13;;
68800;SDS011;55784;50.734;7.086;2024-01-07T04:24:51;22.50;;;8.10;;
68800;SDS011;55784;50.734;7.086;2024-01-07T04:27:16;21.93;;;7.53;;
68800;SDS011;55784;50.734;7.086;2024-01-07T04:29:42;21.27;;;7.27;;
68800;SDS011;55784;50.734;7.086;2024-01-07T04:32:07;22.00;;;7.47;;
68800;SDS011;55784;50.734;7.086;2024-01-07T04:34:32;19.70;;;6.93;;
68800;SDS011;55784;50.734;7.086;2024-01-07T04:36:57;23.10;;;8.40;;
68800;SDS011;55784;50.734;7.086;2024-01-07T04:39:22;20.53;;;6.40;;
68800;SDS011;55784;50.734;7.086;2024-01-07T04:41:48;19.55;;;6.38;;
68800;SDS011;55784;50.734;7.086;2024-01-07T04:44:13;21.63;;;7.20;;
68800;SDS011;55784;50.734;7.086;2024-01-07T04:46:39;18.67;;;6.43;;
68800;SDS011;55784;50.734;7.086;2024-01-07T04:49:04;20.83;;;6.85;;
68800;SDS011;55784;50.734;7.086;2024-01-07T04:51:30;20.27;;;6.72;;
68800;SDS011;55784;50.734;7.086;2024-01-07T04:53:55;19.67;;;6.83;;
68800;SDS011;55784;50.734;7.086;2024-01-07T04:56:21;20.67;;;7.10;;
68800;SDS011;55784;50.734;7.086;2024-01-07T04:58:46;22.73;;;7.13;;
68800;SDS011;55784;50.734;7.086;2024-01-07T05:01:11;20.07;;;6.60;;
68800;SDS011;55784;50.734;7.086;2024-01-07T05:03:37;17.60;;;6.30;;
68800;SDS011;55784;50.734;7.086;2024-01-07T05:06:03;20.05;;;6.85;;
68800;SDS011;55784;50.734;7.086;2024-01-07T05:08:28;18.33;;;5.93;;
68800;SDS011;55784;50.734;7.086;2024-01-07T05:10:53;19.57;;;6.17;;
68800;SDS011;55784;50.734;7.086;2024-01-07T05:13:18;19.23;;;6.30;;
68800;SDS011;55784;50.734;7.086;2024-01-07T05:15:43;19.87;;;7.43;;
68800;SDS011;55784;50.734;7.086;2024-01-07T05:18:10;20.60;;;6.70;;
68800;SDS011;55784;50.734;7.086;2024-01-07T05:20:36;20.10;;;6.80;;
68800;SDS011;55784;50.734;7.086;2024-01-07T05:23:01;22.70;;;7.22;;
68800;SDS011;55784;50.734;7.086;2024-01-07T05:25:26;20.43;;;7.43;;
68800;SDS011;55784;50.734;7.086;2024-01-07T05:27:51;22.03;;;7.60;;
68800;SDS011;55784;50.734;7.086;2024-01-07T05:30:16;19.73;;;7.37;;
68800;SDS011;55784;50.734;7.086;2024-01-07T05:32:41;20.10;;;6.23;;
68800;SDS011;55784;50.734;7.086;2024-01-07T05:35:07;19.60;;;7.10;;
68800;SDS011;55784;50.734;7.086;2024-01-07T05:37:32;20.67;;;6.50;;
68800;SDS011;55784;50.734;7.086;2024-01-07T05:39:57;18.03;;;6.17;;
68800;SDS011;55784;50.734;7.086;2024-01-07T05:42:22;20.30;;;7.27;;
68800;SDS011;55784;50.734;7.086;2024-01-07T05:44:48;20.17;;;6.93;;
68800;SDS011;55784;50.734;7.086;2024-01-07T05:47:13;21.13;;;7.18;;
68800;SDS011;55784;50.734;7.086;2024-01-07T05:49:38;20.40;;;7.43;;
68800;SDS011;55784;50.734;7.086;2024-01-07T05:52:04;20.27;;;7.33;;
68800;SDS011;55784;50.734;7.086;2024-01-07T05:54:29;20.58;;;7.20;;
68800;SDS011;55784;50.734;7.086;2024-01-07T05:56:54;20.90;;;7.20;;
68800;SDS011;55784;50.734;7.086;2024-01-07T05:59:20;21.75;;;7.53;;
68800;SDS011;55784;50.734;7.086;2024-01-07T06:01:45;21.93;;;7.87;;
68800;SDS011;55784;50.734;7.086;2024-01-07T06:04:10;22.03;;;7.20;;
68800;SDS011;55784;50.734;7.086;2024-01-07T06:06:35;22.43;;;7.60;;
68800;SDS011;55784;50.734;7.086;2024-01-07T06:09:00;25.03;;;7.80;;
68800;SDS011;55784;50.734;7.086;2024-01-07T06:11:26;23.65;;;8.07;;
68800;SDS011;55784;50.734;7.086;2024-01-07T06:13:52;25.33;;;8.20;;
68800;SDS011;55784;50.734;7.086;2024-01-07T06:16:17;26.10;;;8.57;;
68800;SDS011;55784;50.734;7.086;2024-01-07T06:18:42;26.63;;;8.73;;
68800;SDS011;55784;50.734;7.086;2024-01-07T06:21:07;25.67;;;8.60;;
68800;SDS011;55784;50.734;7.086;2024-01-07T06:23:33;24.23;;;7.87;;
68800;SDS011;55784;50.734;7.086;2024-01-07T06:25:58;28.65;;;9.18;;
68800;SDS011;55784;50.734;7.086;2024-01-07T06:28:23;26.33;;;8.40;;
68800;SDS011;55784;50.734;7.086;2024-01-07T06:30:48;29.00;;;9.30;;
68800;SDS011;55784;50.734;7.086;2024-01-07T06:33:13;27.97;;;9.27;;
68800;SDS011;55784;50.734;7.086;2024-01-07T06:35:40;27.27;;;9.20;;
68800;SDS011;55784;50.734;7.086;2024-01-07T06:38:05;26.90;;;9.43;;
68800;SDS011;55784;50.734;7.086;2024-01-07T06:40:31;26.50;;;9.57;;
68800;SDS011;55784;50.734;7.086;2024-01-07T06:42:56;28.07;;;10.20;;
68800;SDS011;55784;50.734;7.086;2024-01-07T06:45:21;25.20;;;8.87;;
68800;SDS011;55784;50.734;7.086;2024-01-07T06:47:46;24.87;;;8.53;;
68800;SDS011;55784;50.734;7.086;2024-01-07T06:50:11;23.83;;;8.20;;
68800;SDS011;55784;50.734;7.086;2024-01-07T06:52:37;29.33;;;10.47;;
68800;SDS011;55784;50.734;7.086;2024-01-07T06:55:02;25.53;;;8.67;;
68800;SDS011;55784;50.734;7.086;2024-01-07T06:57:27;24.77;;;9.00;;
68800;SDS011;55784;50.734;7.086;2024-01-07T06:59:52;26.77;;;9.33;;
68800;SDS011;55784;50.734;7.086;2024-01-07T07:02:19;25.37;;;8.63;;
68800;SDS011;55784;50.734;7.086;2024-01-07T07:04:44;24.23;;;9.15;;
68800;SDS011;55784;50.734;7.086;2024-01-07T07:07:10;24.90;;;9.57;;
68800;SDS011;55784;50.734;7.086;2024-01-07T07:09:35;25.00;;;8.68;;
68800;SDS011;55784;50.734;7.086;2024-01-07T07:12:00;26.30;;;9.87;;
68800;SDS011;55784;50.734;7.086;2024-01-07T07:14:25;23.50;;;8.33;;
68800;SDS011;55784;50.734;7.086;2024-01-07T07:16:51;26.27;;;8.90;;
68800;SDS011;55784;50.734;7.086;2024-01-07T07:19:16;23.30;;;7.67;;
68800;SDS011;55784;50.734;7.086;2024-01-07T07:21:43;27.23;;;9.45;;
68800;SDS011;55784;50.734;7.086;2024-01-07T07:24:08;23.37;;;8.27;;
68800;SDS011;55784;50.734;7.086;2024-01-07T07:26:33;26.40;;;9.70;;
68800;SDS011;55784;50.734;7.086;2024-01-07T07:29:00;23.55;;;8.27;;
68800;SDS011;55784;50.734;7.086;2024-01-07T07:31:26;21.97;;;7.73;;
68800;SDS011;55784;50.734;7.086;2024-01-07T07:33:51;23.87;;;7.70;;
68800;SDS011;55784;50.734;7.086;2024-01-07T07:36:17;23.63;;;7.93;;
68800;SDS011;55784;50.734;7.086;2024-01-07T07:38:42;22.07;;;7.23;;
68800;SDS011;55784;50.734;7.086;2024-01-07T07:41:07;21.67;;;7.83;;
68800;SDS011;55784;50.734;7.086;2024-01-07T07:43:32;22.47;;;8.03;;
68800;SDS011;55784;50.734;7.086;2024-01-07T07:45:58;22.92;;;8.25;;
68800;SDS011;55784;50.734;7.086;2024-01-07T07:48:24;24.70;;;8.38;;
68800;SDS011;55784;50.734;7.086;2024-01-07T07:50:51;23.23;;;8.63;;
68800;SDS011;55784;50.734;7.086;2024-01-07T07:53:16;21.97;;;7.93;;
68800;SDS011;55784;50.734;7.086;2024-01-07T07:55:41;20.40;;;7.33;;
68800;SDS011;55784;50.734;7.086;2024-01-07T07:58:06;21.83;;;7.03;;
68800;SDS011;55784;50.734;7.086;2024-01-07T08:00:33;21.98;;;7.43;;
68800;SDS011;55784;50.734;7.086;2024-01-07T08:02:58;22.87;;;7.73;;
68800;SDS011;55784;50.734;7.086;2024-01-07T08:05:24;21.80;;;8.33;;
68800;SDS011;55784;50.734;7.086;2024-01-07T08:07:49;21.67;;;8.60;;
68800;SDS011;55784;50.734;7.086;2024-01-07T08:10:14;23.20;;;9.03;;
68800;SDS011;55784;50.734;7.086;2024-01-07T08:12:39;22.83;;;7.87;;
68800;SDS011;55784;50.734;7.086;2024-01-07T08:15:05;22.83;;;7.83;;
68800;SDS011;55784;50.734;7.086;2024-01-07T08:17:30;21.65;;;7.88;;
68800;SDS011;55784;50.734;7.086;2024-01-07T08:19:55;22.03;;;8.57;;
68800;SDS011;55784;50.734;7.086;2024-01-07T08:22:20;19.57;;;7.60;;
68800;SDS011;55784;50.734;7.086;2024-01-07T08:24:46;25.23;;;8.30;;
68800;SDS011;55784;50.734;7.086;2024-01-07T08:27:11;23.50;;;7.97;;
68800;SDS011;55784;50.734;7.086;2024-01-07T08:29:36;21.83;;;7.97;;
68800;SDS011;55784;50.734;7.086;2024-01-07T08:32:01;20.57;;;7.53;;
68800;SDS011;55784;50.734;7.086;2024-01-07T08:34:27;20.77;;;7.63;;
68800;SDS011;55784;50.734;7.086;2024-01-07T08:36:52;21.93;;;7.20;;
68800;SDS011;55784;50.734;7.086;2024-01-07T08:39:19;21.80;;;8.90;;
68800;SDS011;55784;50.734;7.086;2024-01-07T08:41:44;22.60;;;8.33;;
68800;SDS011;55784;50.734;7.086;2024-01-07T08:44:10;18.83;;;6.88;;
68800;SDS011;55784;50.734;7.086;2024-01-07T08:46:35;20.43;;;7.30;;
68800;SDS011;55784;50.734;7.086;2024-01-07T08:49:01;19.93;;;8.40;;
68800;SDS011;55784;50.734;7.086;2024-01-07T08:51:26;20.13;;;7.17;;
68800;SDS011;55784;50.734;7.086;2024-01-07T08:53:51;20.17;;;7.30;;
68800;SDS011;55784;50.734;7.086;2024-01-07T08:56:17;17.97;;;6.43;;
68800;SDS011;55784;50.734;7.086;2024-01-07T08:58:42;18.30;;;6.80;;
68800;SDS011;55784;50.734;7.086;2024-01-07T09:01:07;17.50;;;6.87;;
68800;SDS011;55784;50.734;7.086;2024-01-07T09:03:33;19.63;;;7.35;;
68800;SDS011;55784;50.734;7.086;2024-01-07T09:05:58;17.00;;;6.63;;
68800;SDS011;55784;50.734;7.086;2024-01-07T09:08:23;19.83;;;7.13;;
68800;SDS011;55784;50.734;7.086;2024-01-07T09:10:49;19.48;;;6.90;;
68800;SDS011;55784;50.734;7.086;2024-01-07T09:13:14;19.50;;;7.27;;
68800;SDS011;55784;50.734;7.086;2024-01-07T09:15:39;22.13;;;7.43;;
68800;SDS011;55784;50.734;7.086;2024-01-07T09:18:04;19.80;;;7.30;;
68800;SDS011;55784;50.734;7.086;2024-01-07T09:20:30;19.33;;;7.10;;
68800;SDS011;55784;50.734;7.086;2024-01-07T09:22:55;18.63;;;6.97;;
68800;SDS011;55784;50.734;7.086;2024-01-07T09:25:23;18.03;;;7.73;;
68800;SDS011;55784;50.734;7.086;2024-01-07T09:27:48;18.40;;;7.13;;
68800;SDS011;55784;50.734;7.086;2024-01-07T09:30:14;19.17;;;7.73;;
68800;SDS011;55784;50.734;7.086;2024-01-07T09:32:42;19.77;;;6.95;;
68800;SDS011;55784;50.734;7.086;2024-01-07T09:35:07;20.10;;;7.30;;
68800;SDS011;55784;50.734;7.086;2024-01-07T09:37:36;20.30;;;8.30;;
68800;SDS011;55784;50.734;7.086;2024-01-07T09:40:01;19.50;;;8.30;;
68800;SDS011;55784;50.734;7.086;2024-01-07T09:42:27;20.40;;;6.50;;
68800;SDS011;55784;50.734;7.086;2024-01-07T09:44:52;20.03;;;7.50;;
68800;SDS011;55784;50.734;7.086;2024-01-07T09:47:17;17.77;;;7.20;;
68800;SDS011;55784;50.734;7.086;2024-01-07T09:49:42;20.57;;;7.93;;
68800;SDS011;55784;50.734;7.086;2024-01-07T09:52:08;18.57;;;7.80;;
68800;SDS011;55784;50.734;7.086;2024-01-07T09:54:35;20.85;;;7.22;;
68800;SDS011;55784;50.734;7.086;2024-01-07T09:57:02;18.58;;;7.03;;
68800;SDS011;55784;50.734;7.086;2024-01-07T09:59:28;20.90;;;8.47;;
68800;SDS011;55784;50.734;7.086;2024-01-07T10:01:53;18.88;;;6.80;;
68800;SDS011;55784;50.734;7.086;2024-01-07T10:04:19;20.30;;;7.10;;
68800;SDS011;55784;50.734;7.086;2024-01-07T10:06:44;19.37;;;6.90;;
68800;SDS011;55784;50.734;7.086;2024-01-07T10:09:11;19.23;;;7.15;;
68800;SDS011;55784;50.734;7.086;2024-01-07T10:11:36;19.20;;;6.63;;
68800;SDS011;55784;50.734;7.086;2024-01-07T10:14:02;19.73;;;6.77;;
68800;SDS011;55784;50.734;7.086;2024-01-07T10:16:27;20.63;;;6.73;;
68800;SDS011;55784;50.734;7.086;2024-01-07T10:18:52;20.00;;;7.33;;
68800;SDS011;55784;50.734;7.086;2024-01-07T10:21:18;21.87;;;7.50;;
68800;SDS011;55784;50.734;7.086;2024-01-07T10:23:43;22.47;;;8.63;;
68800;SDS011;55784;50.734;7.086;2024-01-07T10:26:08;23.43;;;8.30;;
68800;SDS011;55784;50.734;7.086;2024-01-07T10:28:34;21.47;;;7.90;;
68800;SDS011;55784;50.734;7.086;2024-01-07T10:30:59;24.07;;;8.73;;
68800;SDS011;55784;50.734;7.086;2024-01-07T10:33:24;21.87;;;8.37;;
68800;SDS011;55784;50.734;7.086;2024-01-07T10:35:54;20.27;;;7.60;;
68800;SDS011;55784;50.734;7.086;2024-01-07T10:38:21;20.63;;;7.32;;
68800;SDS011;55784;50.734;7.086;2024-01-07T10:40:50;21.27;;;8.82;;
68800;SDS011;55784;50.734;7.086;2024-01-07T10:43:17;24.55;;;8.70;;
68800;SDS011;55784;50.734;7.086;2024-01-07T10:45:42;23.60;;;8.80;;
68800;SDS011;55784;50.734;7.086;2024-01-07T10:48:09;24.65;;;8.90;;
68800;SDS011;55784;50.734;7.086;2024-01-07T10:50:35;21.07;;;8.43;;
68800;SDS011;55784;50.734;7.086;2024-01-07T10:53:03;22.37;;;8.10;;
68800;SDS011;55784;50.734;7.086;2024-01-07T10:55:33;21.60;;;8.40;;
68800;SDS011;55784;50.734;7.086;2024-01-07T10:57:59;20.02;;;8.18;;
68800;SDS011;55784;50.734;7.086;2024-01-07T11:00:25;19.92;;;7.90;;
68800;SDS011;55784;50.734;7.086;2024-01-07T11:06:11;18.83;;;7.30;;
68800;SDS011;55784;50.734;7.086;2024-01-07T11:08:18;19.10;;;7.05;;
68800;SDS011;55784;50.734;7.086;2024-01-07T11:10:48;18.48;;;6.78;;
68800;SDS011;55784;50.734;7.086;2024-01-07T11:16:00;18.38;;;8.02;;
68800;SDS011;55784;50.734;7.086;2024-01-07T11:18:26;16.83;;;6.30;;
68800;SDS011;55784;50.734;7.086;2024-01-07T11:20:57;17.15;;;6.03;;
68800;SDS011;55784;50.734;7.086;2024-01-07T11:23:27;18.13;;;6.25;;
68800;SDS011;55784;50.734;7.086;2024-01-07T11:25:54;17.57;;;7.07;;
68800;SDS011;55784;50.734;7.086;2024-01-07T11:28:24;15.10;;;5.97;;
68800;SDS011;55784;50.734;7.086;2024-01-07T11:31:05;16.10;;;6.00;;
68800;SDS011;55784;50.734;7.086;2024-01-07T11:33:31;17.03;;;6.20;;
68800;SDS011;55784;50.734;7.086;2024-01-07T11:35:58;14.93;;;5.47;;
68800;SDS011;55784;50.734;7.086;2024-01-07T11:38:24;16.27;;;6.47;;
68800;SDS011;55784;50.734;7.086;2024-01-07T11:40:49;17.07;;;6.20;;
68800;SDS011;55784;50.734;7.086;2024-01-07T11:43:15;15.10;;;5.95;;
68800;SDS011;55784;50.734;7.086;2024-01-07T11:45:40;17.10;;;6.33;;
68800;SDS011;55784;50.734;7.086;2024-01-07T11:48:06;16.30;;;6.07;;
68800;SDS011;55784;50.734;7.086;2024-01-07T11:50:31;16.07;;;6.10;;
68800;SDS011;55784;50.734;7.086;2024-01-07T11:52:57;17.00;;;6.10;;
68800;SDS011;55784;50.734;7.086;2024-01-07T11:55:22;16.50;;;7.00;;
68800;SDS011;55784;50.734;7.086;2024-01-07T11:57:47;15.13;;;6.10;;
68800;SDS011;55784;50.734;7.086;2024-01-07T12:00:12;16.27;;;6.80;;
68800;SDS011;55784;50.734;7.086;2024-01-07T12:02:38;18.30;;;6.43;;
68800;SDS011;55784;50.734;7.086;2024-01-07T12:05:03;16.93;;;6.43;;
68800;SDS011;55784;50.734;7.086;2024-01-07T12:07:29;17.83;;;7.25;;
68800;SDS011;55784;50.734;7.086;2024-01-07T12:09:55;19.27;;;7.27;;
68800;SDS011;55784;50.734;7.086;2024-01-07T12:12:20;18.40;;;8.57;;
68800;SDS011;55784;50.734;7.086;2024-01-07T12:14:45;19.23;;;6.73;;
68800;SDS011;55784;50.734;7.086;2024-01-07T12:17:11;19.95;;;8.80;;
68800;SDS011;55784;50.734;7.086;2024-01-07T12:19:39;18.30;;;7.60;;
68800;SDS011;55784;50.734;7.086;2024-01-07T12:22:07;19.83;;;8.15;;
68800;SDS011;55784;50.734;7.086;2024-01-07T12:24:33;19.67;;;7.20;;
68800;SDS011;55784;50.734;7.086;2024-01-07T12:27:07;19.33;;;7.68;;
68800;SDS011;55784;50.734;7.086;2024-01-07T12:29:32;20.38;;;7.80;;
68800;SDS011;55784;50.734;7.086;2024-01-07T12:31:58;19.77;;;7.90;;
68800;SDS011;55784;50.734;7.086;2024-01-07T12:34:24;21.43;;;9.50;;
68800;SDS011;55784;50.734;7.086;2024-01-07T12:36:49;20.27;;;8.77;;
68800;SDS011;55784;50.734;7.086;2024-01-07T12:39:16;22.33;;;7.95;;
68800;SDS011;55784;50.734;7.086;2024-01-07T12:41:41;20.00;;;7.27;;
68800;SDS011;55784;50.734;7.086;2024-01-07T12:44:06;19.40;;;7.07;;
68800;SDS011;55784;50.734;7.086;2024-01-07T12:46:33;20.25;;;8.20;;
68800;SDS011;55784;50.734;7.086;2024-01-07T12:48:59;18.87;;;7.50;;
68800;SDS011;55784;50.734;7.086;2024-01-07T12:51:24;19.60;;;7.40;;
68800;SDS011;55784;50.734;7.086;2024-01-07T12:53:50;18.23;;;7.47;;
68800;SDS011;55784;50.734;7.086;2024-01-07T12:56:15;19.63;;;8.30;;
68800;SDS011;55784;50.734;7.086;2024-01-07T12:58:40;16.93;;;6.90;;
68800;SDS011;55784;50.734;7.086;2024-01-07T13:01:05;17.00;;;7.47;;
68800;SDS011;55784;50.734;7.086;2024-01-07T13:03:31;16.23;;;7.33;;
68800;SDS011;55784;50.734;7.086;2024-01-07T13:05:56;16.97;;;7.57;;
68800;SDS011;55784;50.734;7.086;2024-01-07T13:08:22;15.65;;;6.10;;
68800;SDS011;55784;50.734;7.086;2024-01-07T13:10:47;17.17;;;6.50;;
68800;SDS011;55784;50.734;7.086;2024-01-07T13:13:13;19.17;;;8.03;;
68800;SDS011;55784;50.734;7.086;2024-01-07T13:15:38;15.70;;;6.20;;
68800;SDS011;55784;50.734;7.086;2024-01-07T13:18:06;16.30;;;6.95;;
68800;SDS011;55784;50.734;7.086;2024-01-07T13:20:31;16.87;;;6.87;;
68800;SDS011;55784;50.734;7.086;2024-01-07T13:22:56;15.53;;;6.60;;
68800;SDS011;55784;50.734;7.086;2024-01-07T13:25:22;16.02;;;6.57;;
68800;SDS011;55784;50.734;7.086;2024-01-07T13:27:47;16.80;;;7.00;;
68800;SDS011;55784;50.734;7.086;2024-01-07T13:30:12;18.15;;;7.22;;
68800;SDS011;55784;50.734;7.086;2024-01-07T13:32:39;15.63;;;6.57;;
68800;SDS011;55784;50.734;7.086;2024-01-07T13:35:04;14.60;;;6.10;;
68800;SDS011;55784;50.734;7.086;2024-01-07T13:37:30;15.43;;;6.40;;
68800;SDS011;55784;50.734;7.086;2024-01-07T13:39:56;14.77;;;6.07;;
68800;SDS011;55784;50.734;7.086;2024-01-07T13:42:21;14.17;;;6.43;;
68800;SDS011;55784;50.734;7.086;2024-01-07T13:44:46;17.87;;;6.37;;
68800;SDS011;55784;50.734;7.086;2024-01-07T13:47:12;16.33;;;6.60;;
68800;SDS011;55784;50.734;7.086;2024-01-07T13:49:39;14.63;;;6.85;;
68800;SDS011;55784;50.734;7.086;2024-01-07T13:52:13;14.40;;;5.80;;
68800;SDS011;55784;50.734;7.086;2024-01-07T13:54:44;14.38;;;6.05;;
68800;SDS011;55784;50.734;7.086;2024-01-07T13:57:09;13.80;;;5.83;;
68800;SDS011;55784;50.734;7.086;2024-01-07T13:59:35;13.77;;;5.90;;
68800;SDS011;55784;50.734;7.086;2024-01-07T14:02:03;13.70;;;5.30;;
68800;SDS011;55784;50.734;7.086;2024-01-07T14:04:47;11.32;;;4.35;;
68800;SDS011;55784;50.734;7.086;2024-01-07T14:07:15;14.35;;;5.13;;
68800;SDS011;55784;50.734;7.086;2024-01-07T14:09:40;12.77;;;4.53;;
68800;SDS011;55784;50.734;7.086;2024-01-07T14:12:05;13.50;;;5.10;;
68800;SDS011;55784;50.734;7.086;2024-01-07T14:15:04;12.37;;;4.70;;
68800;SDS011;55784;50.734;7.086;2024-01-07T14:17:48;11.13;;;4.90;;
68800;SDS011;55784;50.734;7.086;2024-01-07T14:20:17;11.88;;;4.40;;
68800;SDS011;55784;50.734;7.086;2024-01-07T14:22:50;12.57;;;4.57;;
68800;SDS011;55784;50.734;7.086;2024-01-07T14:25:23;10.32;;;4.03;;
68800;SDS011;55784;50.734;7.086;2024-01-07T14:27:48;10.93;;;3.47;;
68800;SDS011;55784;50.734;7.086;2024-01-07T14:30:14;11.80;;;4.33;;